Aérodrome :
LOGIN :

S'inscrire | Disclaimer

   EN    FR    IT 

 










Légende :    VFR   VFR Marginal   IFR   IFR Intensif   IFR Très Intensif
Visi : 
Plafond : 
>= 8 km
>= 3000ft
5 à 8 km
1000 à 3000 ft
1500m à 5 km
500 à 1000 ft
800 à 1500m
200 à 500 ft
< 800m
< 200 ft
Symboles :   Orages  Brouillard  Fortes neiges  Fortes précipitations  Vent > 20 kt
SIGMETs :   Divers  Orages  Givrage  Turbulence  Onde Orograph.  Cendres Volcan.






- Altitude de l'aérodrome : 465 ft


ENFB - Statfjord B Platform

DERNIER METAR :
  • 151050Z AUTO 12011KT 9999NDV FEW017/// 06/02 Q0978 W///S4

METARs EXPIRÉS :
  • 151020Z AUTO 13014KT 9999NDV BKN017/// 06/02 Q0978 W///S4
  • 150950Z AUTO 14008KT 9999NDV BKN013/// 06/03 Q0978 W///S4
  • 150920Z AUTO VRB07KT 9999NDV -SHRA BKN019/// 06/03 Q0978 W///S4
  • 150850Z AUTO 14002KT 9999NDV -SHRA BKN016/// 05/03 Q0978 W///S4
  • 150820Z AUTO VRB08KT 9999NDV SCT016/// BKN032/// 06/02 Q0978 W///S4

TAF N/A



MET'MAP, la Météo Aéronautique d'un coup d'oeil ! - Copyright ORBIFLY Décembre 2007 - Disclaimer

ORBIFLY MET'MAP TEAM :

Programmation & Développement : Alexandra Zaïnal
Sur une idée originale de : Baudouin d'Aumeries
Assistance à la programmation : Marc-Olivier Méhu
Soutien technique & logistique : Manuel Goepfert

Contact : metmap@orbifly.com




SOURCES & CREDITS :

   NOAA